createdAt,value
2022-10-08T04:58:17.608Z,0.01
2022-10-08T05:00:37.580Z,0.02
2022-10-08T05:02:43.369Z,0.03
2022-10-08T05:05:37.947Z,0.06
2022-10-08T05:08:18.260Z,0.09
2022-10-08T05:10:44.635Z,0.15
2022-10-08T05:12:55.875Z,0.22
2022-10-08T05:14:53.712Z,0.32
2022-10-08T05:17:40.171Z,0.52
2022-10-08T05:20:12.394Z,0.83
2022-10-08T05:22:30.678Z,1.23
2022-10-08T05:24:34.708Z,1.66
2022-10-08T05:27:27.414Z,2.5
2022-10-08T05:30:06.126Z,3.33
2022-10-08T05:32:30.515Z,4.35
2022-10-08T05:34:40.748Z,5.66
2022-10-08T05:37:39.860Z,7.7
2022-10-08T05:40:24.659Z,9.46
2022-10-08T05:42:55.251Z,11
2022-10-08T05:45:11.698Z,12.7
2022-10-08T05:47:14.037Z,14.12
2022-10-08T05:50:05.039Z,15.96
2022-10-08T05:52:41.837Z,17.62
2022-10-08T05:55:04.593Z,19.42
2022-10-08T05:57:13.090Z,21.44
2022-10-08T06:00:10.243Z,24.09
2022-10-08T06:02:53.458Z,26.27
2022-10-08T06:05:22.112Z,28.83
2022-10-08T06:07:36.450Z,31.3
2022-10-08T06:09:37.078Z,33.65
2022-10-08T06:12:26.285Z,36.42
2022-10-08T06:15:01.294Z,37.98
2022-10-08T06:17:22.037Z,40.76
2022-10-08T06:19:28.850Z,42.48
2022-10-08T06:22:24.240Z,45.9
2022-10-08T06:25:05.306Z,50.98
2022-10-08T06:27:32.459Z,60.9
2022-10-08T06:29:45.355Z,59.18
2022-10-08T06:31:44.084Z,61
2022-10-08T06:34:31.533Z,61.4
2022-10-08T06:37:04.837Z,63.58
2022-10-08T06:39:23.840Z,68.64
2022-10-08T06:41:28.815Z,70.24
2022-10-08T06:44:22.713Z,70.18
2022-10-08T06:47:01.922Z,69.42
2022-10-08T06:49:27.035Z,74.72
2022-10-08T06:51:38.198Z,85.72
2022-10-08T06:54:37.920Z,83.32
2022-10-08T06:57:23.018Z,86.48
2022-10-08T06:59:54.525Z,96.44
2022-10-08T07:02:11.847Z,98.52
2022-10-08T07:04:14.774Z,99.96
2022-10-08T07:07:06.687Z,102.84
2022-10-08T07:09:44.302Z,103.76
2022-10-08T07:12:07.680Z,112.6
2022-10-08T07:14:17.086Z,120.96
2022-10-08T07:17:15.126Z,132.36
2022-10-08T07:19:58.883Z,134.68
2022-10-08T07:22:28.378Z,138.6
2022-10-08T07:24:43.937Z,137.68
2022-10-08T07:26:45.242Z,133.56
2022-10-08T07:29:35.222Z,119.48
2022-10-08T07:32:11.181Z,133.48
2022-10-08T07:34:32.868Z,148.76
2022-10-08T07:36:40.337Z,178.1
2022-10-08T07:39:36.673Z,194.7
2022-10-08T07:42:18.804Z,176
2022-10-08T07:44:46.691Z,229.4
2022-10-08T07:47:00.255Z,266.6
2022-10-08T07:48:59.476Z,256.9
2022-10-08T07:51:47.533Z,280
2022-10-08T07:54:21.493Z,281.2
2022-10-08T07:56:41.374Z,287.7
2022-10-08T07:58:47.044Z,290.4
2022-10-08T08:01:41.353Z,298.2
2022-10-08T08:04:21.563Z,304.2
2022-10-08T08:06:47.621Z,315.2
2022-10-08T08:08:59.680Z,325.3
2022-10-08T08:10:57.288Z,319.5
2022-10-08T08:13:43.612Z,327
2022-10-08T08:16:16.029Z,340.9
2022-10-08T08:18:33.601Z,358.7
2022-10-08T08:20:37.503Z,368.6
2022-10-08T08:23:29.969Z,392.4
2022-10-08T08:26:08.283Z,407.5
2022-10-08T08:28:32.589Z,472.6
2022-10-08T08:30:42.515Z,471.3
2022-10-08T08:33:41.056Z,506.4
2022-10-08T08:36:25.630Z,579
2022-10-08T08:38:55.963Z,596.6
2022-10-08T08:41:13.595Z,695.3
2022-10-08T08:43:13.694Z,677.1
2022-10-08T08:46:04.285Z,508.6
2022-10-08T08:48:40.658Z,457.2
2022-10-08T08:51:02.787Z,400.3
2022-10-08T08:53:11.030Z,362.8
2022-10-08T08:56:07.857Z,337.1
2022-10-08T08:58:50.526Z,329.2
2022-10-08T09:03:33.714Z,334.8
2022-10-08T09:05:34.170Z,345.6
2022-10-08T09:08:23.275Z,362
2022-10-08T09:10:58.103Z,363.5
2022-10-08T09:13:18.734Z,396.3
2022-10-08T09:15:25.274Z,435.3
2022-10-08T09:18:20.352Z,434
2022-10-08T09:21:01.304Z,426.7
2022-10-08T09:23:27.995Z,422.7
2022-10-08T09:25:40.933Z,376.4
2022-10-08T09:27:39.527Z,367.6
2022-10-08T09:30:26.919Z,341.6
2022-10-08T09:32:59.862Z,336.4
2022-10-08T09:35:18.917Z,349.4
2022-10-08T09:37:23.794Z,407.3
2022-10-08T09:40:17.563Z,431.5
2022-10-08T09:42:57.116Z,437.7
2022-10-08T09:45:22.418Z,551.5
2022-10-08T09:47:33.638Z,400.4
2022-10-08T09:50:33.683Z,407.3
2022-10-08T09:53:19.389Z,416.1
2022-10-08T09:55:50.679Z,393.4
2022-10-08T09:58:08.022Z,411.2
2022-10-08T10:00:11.077Z,448.4
2022-10-08T10:03:02.712Z,569.6
2022-10-08T10:05:40.273Z,572.6
2022-10-08T10:08:03.712Z,608.3
2022-10-08T10:10:12.831Z,882.2
2022-10-08T10:13:10.786Z,674.8
2022-10-08T10:15:54.616Z,599.6
2022-10-08T10:18:24.137Z,1113.6
2022-10-08T10:20:39.497Z,722.5
2022-10-08T10:22:40.798Z,505.9
2022-10-08T10:25:30.395Z,552.6
2022-10-08T10:28:06.214Z,1077.1
2022-10-08T10:30:27.913Z,558.5
2022-10-08T10:32:35.411Z,537.2
2022-10-08T10:35:31.508Z,496
2022-10-08T10:38:13.642Z,487.8
2022-10-08T10:40:41.457Z,477.2
2022-10-08T10:42:55.007Z,488.6
2022-10-08T10:44:54.577Z,440.3
2022-10-08T10:47:42.721Z,463.5
2022-10-08T10:49:57.526Z,464.4
2022-10-08T10:51:58.148Z,478.7
2022-10-08T10:54:47.380Z,565.9
2022-10-08T10:57:22.984Z,1037.7
2022-10-08T10:59:43.639Z,696.6
2022-10-08T11:01:50.431Z,860.1
2022-10-08T11:04:45.975Z,501.2
2022-10-08T11:07:27.451Z,420.9
2022-10-08T11:09:54.627Z,357.6
2022-10-08T11:12:07.748Z,375.6
2022-10-08T11:14:06.630Z,385.6
2022-10-08T11:16:53.789Z,427.3
2022-10-08T11:19:27.065Z,571.6
2022-10-08T11:21:46.379Z,575.2
2022-10-08T11:23:51.591Z,1109.1
2022-10-08T11:26:44.980Z,1086.7
2022-10-08T11:29:24.654Z,589.2
2022-10-08T11:31:50.013Z,1080.9
2022-10-08T11:34:01.189Z,540.4
2022-10-08T11:37:01.268Z,572
2022-10-08T11:39:47.085Z,554.5
2022-10-08T11:42:18.676Z,569.1
2022-10-08T11:44:36.249Z,585.7
2022-10-08T11:46:39.400Z,570
2022-10-08T11:49:31.186Z,620.3
2022-10-08T11:52:08.833Z,575.5
2022-10-08T11:54:32.539Z,744.6
2022-10-08T11:56:41.940Z,708.8
2022-10-08T11:59:39.971Z,760.6
2022-10-08T12:02:24.123Z,899.8
2022-10-08T12:04:53.832Z,855.6
2022-10-08T12:07:09.461Z,879
2022-10-08T12:09:10.684Z,646.2
2022-10-08T12:12:00.903Z,446.7
2022-10-08T12:14:36.855Z,496.6
2022-10-08T12:16:58.646Z,458.2
2022-10-08T12:19:06.362Z,375.3
2022-10-08T12:22:02.730Z,303.8
2022-10-08T12:24:48.995Z,333.9
2022-10-08T12:27:13.016Z,285.4
2022-10-08T12:29:26.857Z,305.6
2022-10-08T12:31:26.545Z,307
2022-10-08T12:34:15.034Z,266.1
2022-10-08T12:36:49.211Z,278.8
2022-10-08T12:39:09.079Z,279.6
2022-10-08T12:41:14.980Z,337.1
2022-10-08T12:44:09.590Z,354
2022-10-08T12:46:50.842Z,379.2
2022-10-08T12:49:16.289Z,335
2022-10-08T12:51:28.497Z,296.8
2022-10-08T12:53:26.475Z,314.4
2022-10-08T12:56:13.168Z,365.4
2022-10-08T12:58:45.771Z,346
2022-10-08T13:01:03.935Z,292.1
2022-10-08T13:03:08.011Z,362.5
2022-10-08T13:06:01.075Z,743
2022-10-08T13:08:39.877Z,432.3
2022-10-08T13:11:04.418Z,262
2022-10-08T13:13:14.941Z,337.1
2022-10-08T13:16:14.235Z,633.7
2022-10-08T13:18:59.396Z,374.4
2022-10-08T13:21:29.929Z,688
2022-10-08T13:23:46.615Z,332.9
2022-10-08T13:25:49.100Z,601.2
2022-10-08T13:28:58.941Z,553.9
2022-10-08T13:31:17.281Z,559.2
2022-10-08T13:33:40.108Z,553.4
2022-10-08T13:35:48.626Z,542.5
2022-10-08T13:38:46.501Z,533.4
2022-10-08T13:41:29.293Z,529.2
2022-10-08T13:43:58.307Z,533.7
2022-10-08T13:46:13.092Z,515.3
2022-10-08T13:48:13.677Z,534.4
2022-10-08T13:51:03.079Z,506.8
2022-10-08T13:53:37.827Z,509.1
2022-10-08T13:55:58.946Z,536.4
2022-10-08T13:58:05.772Z,544.3
2022-10-08T14:01:01.267Z,518.4
2022-10-08T14:03:42.847Z,500
2022-10-08T14:06:09.869Z,463
2022-10-08T14:08:22.845Z,439.2
2022-10-08T14:10:21.850Z,487.2
2022-10-08T14:13:09.519Z,273.6
2022-10-08T14:15:42.837Z,201.4
2022-10-08T14:18:01.924Z,229.2
2022-10-08T14:20:07.026Z,531.8
2022-10-08T14:23:01.025Z,441.6
2022-10-08T14:25:40.308Z,1640
2022-10-08T14:28:05.880Z,408.9
2022-10-08T14:30:17.109Z,584.3
2022-10-08T14:33:17.012Z,476.1
2022-10-08T14:36:03.162Z,600.3
2022-10-08T14:38:34.534Z,297
2022-10-08T14:40:51.891Z,245.5
2022-10-08T14:42:55.207Z,224.7
2022-10-08T14:45:46.871Z,239.5
2022-10-08T14:48:24.553Z,372.1
2022-10-08T14:50:48.061Z,366
2022-10-08T14:52:57.583Z,194.5
2022-10-08T14:56:11.346Z,300.2
2022-10-08T14:58:39.904Z,270.5
2022-10-08T15:01:09.579Z,259.5
2022-10-08T15:03:25.224Z,248
2022-10-08T15:05:26.827Z,241.3
2022-10-08T15:08:16.907Z,237.4
2022-10-08T15:10:52.994Z,244.8
2022-10-08T15:13:14.761Z,259.7
2022-10-08T15:15:22.530Z,254.2
2022-10-08T15:18:19.199Z,236.8
2022-10-08T15:21:01.184Z,208.7
2022-10-08T15:23:29.079Z,199.2
2022-10-08T15:25:42.989Z,184.4
2022-10-08T15:27:42.658Z,181.9
2022-10-08T15:30:30.967Z,179.6
2022-10-08T15:33:05.318Z,164.1
2022-10-08T15:35:25.338Z,158.28
2022-10-08T15:37:30.849Z,152.28
2022-10-08T15:40:25.567Z,145.16
2022-10-08T15:43:06.133Z,133.16
2022-10-08T15:45:32.463Z,120.44
2022-10-08T15:47:44.621Z,115.72
2022-10-08T15:49:42.524Z,104.56
2022-10-08T15:52:29.190Z,101.8
2022-10-08T15:55:01.573Z,92.76
2022-10-08T15:57:19.911Z,99.84
2022-10-08T15:59:24.072Z,116.04
2022-10-08T16:02:17.735Z,129.48
2022-10-08T16:04:55.495Z,112.12
2022-10-08T16:07:19.935Z,119.08
2022-10-08T16:09:30.114Z,86.96
2022-10-08T16:12:29.270Z,86.32
2022-10-08T16:15:14.202Z,71.8
2022-10-08T16:17:44.901Z,59.78
2022-10-08T16:20:01.408Z,54.04
2022-10-08T16:22:03.796Z,50.36
2022-10-08T16:24:54.909Z,45.18
2022-10-08T16:27:31.736Z,40.53
2022-10-08T16:29:54.158Z,36.83
2022-10-08T16:32:02.706Z,34.15
2022-10-08T16:34:59.723Z,29.59
2022-10-08T16:37:42.832Z,23.72
2022-10-08T16:40:11.709Z,20.24
2022-10-08T16:42:26.360Z,17.24
2022-10-08T16:44:26.928Z,14.05
2022-10-08T16:47:16.229Z,11.04
2022-10-08T16:49:51.204Z,8.5
2022-10-08T16:52:11.939Z,7.05
2022-10-08T16:54:18.738Z,5.45
2022-10-08T16:57:14.202Z,3.89
2022-10-08T16:59:55.363Z,2.88
2022-10-08T17:02:25.037Z,2.04
2022-10-08T17:04:35.470Z,1.43
2022-10-08T17:06:34.169Z,1.06
2022-10-08T17:09:21.771Z,0.7
2022-10-08T17:11:55.107Z,0.41
2022-10-08T17:14:14.153Z,0.28
2022-10-08T17:16:19.336Z,0.18
2022-10-08T17:19:13.113Z,0.11
2022-10-08T17:21:52.292Z,0.06
2022-10-08T17:24:17.546Z,0.04
2022-10-08T17:26:28.865Z,0.02
2022-10-08T17:29:28.789Z,0.01
2022-10-08T17:42:00.867Z,0
2022-10-08T19:23:33.941Z,0.01
2022-10-08T19:25:56.100Z,0
2022-10-08T19:31:00.953Z,0.01
2022-10-08T19:36:11.704Z,0
2022-10-08T20:28:06.114Z,0.01
2022-10-08T20:30:37.158Z,0
